sensor_id;sensor_type;location;lat;lon;timestamp;P1;durP1;ratioP1;P2;durP2;ratioP2
69981;SDS011;57319;56.274;43.980;2024-02-21T00:01:56;3.15;;;2.95;;
69981;SDS011;57319;56.274;43.980;2024-02-21T00:04:21;3.38;;;3.10;;
69981;SDS011;57319;56.274;43.980;2024-02-21T00:06:47;3.67;;;3.50;;
69981;SDS011;57319;56.274;43.980;2024-02-21T00:09:13;3.38;;;3.17;;
69981;SDS011;57319;56.274;43.980;2024-02-21T00:11:38;4.38;;;4.07;;
69981;SDS011;57319;56.274;43.980;2024-02-21T00:14:04;3.28;;;3.13;;
69981;SDS011;57319;56.274;43.980;2024-02-21T00:16:29;2.92;;;2.83;;
69981;SDS011;57319;56.274;43.980;2024-02-21T00:18:55;2.97;;;2.75;;
69981;SDS011;57319;56.274;43.980;2024-02-21T00:21:20;3.50;;;3.30;;
69981;SDS011;57319;56.274;43.980;2024-02-21T00:23:46;1.67;;;1.58;;
69981;SDS011;57319;56.274;43.980;2024-02-21T00:26:12;3.70;;;3.50;;
69981;SDS011;57319;56.274;43.980;2024-02-21T00:28:38;3.45;;;3.25;;
69981;SDS011;57319;56.274;43.980;2024-02-21T00:31:04;4.78;;;4.38;;
69981;SDS011;57319;56.274;43.980;2024-02-21T00:33:30;2.97;;;2.88;;
69981;SDS011;57319;56.274;43.980;2024-02-21T00:35:56;2.65;;;2.55;;
69981;SDS011;57319;56.274;43.980;2024-02-21T00:38:22;5.75;;;5.22;;
69981;SDS011;57319;56.274;43.980;2024-02-21T00:40:47;4.63;;;4.22;;
69981;SDS011;57319;56.274;43.980;2024-02-21T00:43:13;4.80;;;4.35;;
69981;SDS011;57319;56.274;43.980;2024-02-21T00:45:39;4.55;;;4.25;;
69981;SDS011;57319;56.274;43.980;2024-02-21T00:48:05;3.35;;;3.15;;
69981;SDS011;57319;56.274;43.980;2024-02-21T00:50:30;3.05;;;2.92;;
69981;SDS011;57319;56.274;43.980;2024-02-21T00:52:56;4.22;;;3.85;;
69981;SDS011;57319;56.274;43.980;2024-02-21T00:55:22;3.88;;;3.58;;
69981;SDS011;57319;56.274;43.980;2024-02-21T00:57:47;3.55;;;3.42;;
69981;SDS011;57319;56.274;43.980;2024-02-21T01:00:13;4.47;;;4.15;;
69981;SDS011;57319;56.274;43.980;2024-02-21T01:02:39;3.97;;;3.72;;
69981;SDS011;57319;56.274;43.980;2024-02-21T01:05:05;4.28;;;3.88;;
69981;SDS011;57319;56.274;43.980;2024-02-21T01:07:30;3.25;;;3.05;;
69981;SDS011;57319;56.274;43.980;2024-02-21T01:09:56;4.80;;;4.43;;
69981;SDS011;57319;56.274;43.980;2024-02-21T01:12:22;4.03;;;3.50;;
69981;SDS011;57319;56.274;43.980;2024-02-21T01:14:47;5.78;;;5.13;;
69981;SDS011;57319;56.274;43.980;2024-02-21T01:17:14;4.45;;;4.03;;
69981;SDS011;57319;56.274;43.980;2024-02-21T01:19:40;3.10;;;3.00;;
69981;SDS011;57319;56.274;43.980;2024-02-21T01:22:06;4.20;;;4.00;;
69981;SDS011;57319;56.274;43.980;2024-02-21T01:24:31;7.72;;;4.07;;
69981;SDS011;57319;56.274;43.980;2024-02-21T01:26:57;4.47;;;4.18;;
69981;SDS011;57319;56.274;43.980;2024-02-21T01:29:22;3.33;;;3.13;;
69981;SDS011;57319;56.274;43.980;2024-02-21T01:31:48;2.45;;;2.35;;
69981;SDS011;57319;56.274;43.980;2024-02-21T01:34:14;3.85;;;3.65;;
69981;SDS011;57319;56.274;43.980;2024-02-21T01:36:40;3.72;;;3.63;;
69981;SDS011;57319;56.274;43.980;2024-02-21T01:39:07;2.28;;;2.25;;
69981;SDS011;57319;56.274;43.980;2024-02-21T01:41:33;3.03;;;2.88;;
69981;SDS011;57319;56.274;43.980;2024-02-21T01:43:58;6.93;;;3.78;;
69981;SDS011;57319;56.274;43.980;2024-02-21T01:46:24;3.25;;;3.05;;
69981;SDS011;57319;56.274;43.980;2024-02-21T01:48:55;1.00;;;1.00;;
69981;SDS011;57319;56.274;43.980;2024-02-21T01:51:23;3.00;;;2.80;;
69981;SDS011;57319;56.274;43.980;2024-02-21T01:53:50;3.67;;;3.47;;
69981;SDS011;57319;56.274;43.980;2024-02-21T01:56:17;3.10;;;2.85;;
69981;SDS011;57319;56.274;43.980;2024-02-21T01:58:43;4.95;;;3.15;;
69981;SDS011;57319;56.274;43.980;2024-02-21T02:01:10;3.22;;;3.05;;
69981;SDS011;57319;56.274;43.980;2024-02-21T02:03:36;2.33;;;2.22;;
69981;SDS011;57319;56.274;43.980;2024-02-21T02:06:03;2.65;;;2.45;;
69981;SDS011;57319;56.274;43.980;2024-02-21T02:08:30;2.33;;;2.25;;
69981;SDS011;57319;56.274;43.980;2024-02-21T02:10:57;2.80;;;2.70;;
69981;SDS011;57319;56.274;43.980;2024-02-21T02:13:23;2.53;;;2.42;;
69981;SDS011;57319;56.274;43.980;2024-02-21T02:15:49;4.03;;;3.72;;
69981;SDS011;57319;56.274;43.980;2024-02-21T02:18:15;5.80;;;4.88;;
69981;SDS011;57319;56.274;43.980;2024-02-21T02:20:46;3.50;;;3.20;;
69981;SDS011;57319;56.274;43.980;2024-02-21T02:25:59;2.65;;;2.55;;
69981;SDS011;57319;56.274;43.980;2024-02-21T02:28:28;3.30;;;3.20;;
69981;SDS011;57319;56.274;43.980;2024-02-21T02:30:54;2.88;;;2.67;;
69981;SDS011;57319;56.274;43.980;2024-02-21T02:33:19;2.97;;;2.78;;
69981;SDS011;57319;56.274;43.980;2024-02-21T02:35:45;2.38;;;2.28;;
69981;SDS011;57319;56.274;43.980;2024-02-21T02:38:11;2.63;;;2.53;;
69981;SDS011;57319;56.274;43.980;2024-02-21T02:40:38;3.15;;;3.05;;
69981;SDS011;57319;56.274;43.980;2024-02-21T02:43:05;2.60;;;2.47;;
69981;SDS011;57319;56.274;43.980;2024-02-21T02:45:31;2.70;;;2.47;;
69981;SDS011;57319;56.274;43.980;2024-02-21T02:47:57;3.20;;;3.10;;
69981;SDS011;57319;56.274;43.980;2024-02-21T02:50:24;2.35;;;2.25;;
69981;SDS011;57319;56.274;43.980;2024-02-21T02:52:50;2.47;;;2.38;;
69981;SDS011;57319;56.274;43.980;2024-02-21T02:55:15;2.78;;;2.60;;
69981;SDS011;57319;56.274;43.980;2024-02-21T02:57:42;3.35;;;2.97;;
69981;SDS011;57319;56.274;43.980;2024-02-21T03:00:08;2.95;;;2.67;;
69981;SDS011;57319;56.274;43.980;2024-02-21T03:02:37;2.70;;;2.60;;
69981;SDS011;57319;56.274;43.980;2024-02-21T03:05:11;2.03;;;1.90;;
69981;SDS011;57319;56.274;43.980;2024-02-21T03:07:41;3.88;;;3.58;;
69981;SDS011;57319;56.274;43.980;2024-02-21T03:10:07;3.15;;;2.92;;
69981;SDS011;57319;56.274;43.980;2024-02-21T03:12:33;2.15;;;2.05;;
69981;SDS011;57319;56.274;43.980;2024-02-21T03:14:59;3.83;;;2.83;;
69981;SDS011;57319;56.274;43.980;2024-02-21T03:17:26;3.25;;;3.13;;
69981;SDS011;57319;56.274;43.980;2024-02-21T03:19:54;2.00;;;2.00;;
69981;SDS011;57319;56.274;43.980;2024-02-21T03:22:25;2.35;;;2.22;;
69981;SDS011;57319;56.274;43.980;2024-02-21T03:24:50;2.38;;;2.28;;
69981;SDS011;57319;56.274;43.980;2024-02-21T03:27:16;2.45;;;2.35;;
69981;SDS011;57319;56.274;43.980;2024-02-21T03:29:42;3.08;;;2.88;;
69981;SDS011;57319;56.274;43.980;2024-02-21T03:32:08;2.08;;;1.98;;
69981;SDS011;57319;56.274;43.980;2024-02-21T03:34:34;2.22;;;2.22;;
69981;SDS011;57319;56.274;43.980;2024-02-21T03:37:00;2.20;;;2.10;;
69981;SDS011;57319;56.274;43.980;2024-02-21T03:39:26;2.15;;;2.05;;
69981;SDS011;57319;56.274;43.980;2024-02-21T03:41:52;2.40;;;2.30;;
69981;SDS011;57319;56.274;43.980;2024-02-21T03:44:18;2.05;;;2.05;;
69981;SDS011;57319;56.274;43.980;2024-02-21T03:46:44;4.00;;;2.10;;
69981;SDS011;57319;56.274;43.980;2024-02-21T03:49:10;2.17;;;2.08;;
69981;SDS011;57319;56.274;43.980;2024-02-21T03:51:35;1.77;;;1.67;;
69981;SDS011;57319;56.274;43.980;2024-02-21T03:54:01;2.63;;;2.50;;
69981;SDS011;57319;56.274;43.980;2024-02-21T03:56:27;2.30;;;2.20;;
69981;SDS011;57319;56.274;43.980;2024-02-21T03:58:52;2.33;;;2.22;;
69981;SDS011;57319;56.274;43.980;2024-02-21T04:01:18;2.05;;;1.90;;
69981;SDS011;57319;56.274;43.980;2024-02-21T04:03:44;2.17;;;2.05;;
69981;SDS011;57319;56.274;43.980;2024-02-21T04:06:09;3.30;;;2.42;;
69981;SDS011;57319;56.274;43.980;2024-02-21T04:08:35;1.38;;;1.38;;
69981;SDS011;57319;56.274;43.980;2024-02-21T04:11:01;2.28;;;2.17;;
69981;SDS011;57319;56.274;43.980;2024-02-21T04:13:27;2.70;;;2.25;;
69981;SDS011;57319;56.274;43.980;2024-02-21T04:15:53;1.75;;;1.75;;
69981;SDS011;57319;56.274;43.980;2024-02-21T04:18:18;1.58;;;1.48;;
69981;SDS011;57319;56.274;43.980;2024-02-21T04:20:44;1.85;;;1.85;;
69981;SDS011;57319;56.274;43.980;2024-02-21T04:23:10;1.98;;;1.88;;
69981;SDS011;57319;56.274;43.980;2024-02-21T04:25:36;1.85;;;1.75;;
69981;SDS011;57319;56.274;43.980;2024-02-21T04:28:01;1.52;;;1.52;;
69981;SDS011;57319;56.274;43.980;2024-02-21T04:30:28;1.48;;;1.45;;
69981;SDS011;57319;56.274;43.980;2024-02-21T04:32:54;2.28;;;1.77;;
69981;SDS011;57319;56.274;43.980;2024-02-21T04:35:20;3.50;;;1.83;;
69981;SDS011;57319;56.274;43.980;2024-02-21T04:37:45;1.30;;;1.30;;
69981;SDS011;57319;56.274;43.980;2024-02-21T04:40:11;1.90;;;1.90;;
69981;SDS011;57319;56.274;43.980;2024-02-21T04:42:37;1.20;;;1.20;;
69981;SDS011;57319;56.274;43.980;2024-02-21T04:45:03;2.28;;;2.17;;
69981;SDS011;57319;56.274;43.980;2024-02-21T04:47:30;1.75;;;1.75;;
69981;SDS011;57319;56.274;43.980;2024-02-21T04:49:55;1.70;;;1.60;;
69981;SDS011;57319;56.274;43.980;2024-02-21T04:52:21;1.38;;;1.38;;
69981;SDS011;57319;56.274;43.980;2024-02-21T04:54:47;1.35;;;1.35;;
69981;SDS011;57319;56.274;43.980;2024-02-21T04:57:12;1.80;;;1.38;;
69981;SDS011;57319;56.274;43.980;2024-02-21T04:59:45;1.77;;;1.77;;
69981;SDS011;57319;56.274;43.980;2024-02-21T05:02:13;1.10;;;1.10;;
69981;SDS011;57319;56.274;43.980;2024-02-21T05:04:39;1.67;;;1.55;;
69981;SDS011;57319;56.274;43.980;2024-02-21T05:07:07;1.50;;;1.50;;
69981;SDS011;57319;56.274;43.980;2024-02-21T05:09:32;1.60;;;1.60;;
69981;SDS011;57319;56.274;43.980;2024-02-21T05:11:58;2.28;;;2.17;;
69981;SDS011;57319;56.274;43.980;2024-02-21T05:14:24;0.82;;;0.82;;
69981;SDS011;57319;56.274;43.980;2024-02-21T05:16:52;1.63;;;1.63;;
69981;SDS011;57319;56.274;43.980;2024-02-21T05:19:18;2.47;;;1.63;;
69981;SDS011;57319;56.274;43.980;2024-02-21T05:21:43;2.03;;;1.95;;
69981;SDS011;57319;56.274;43.980;2024-02-21T05:24:09;2.05;;;1.83;;
69981;SDS011;57319;56.274;43.980;2024-02-21T05:26:34;6.43;;;1.60;;
69981;SDS011;57319;56.274;43.980;2024-02-21T05:29:00;2.30;;;1.73;;
69981;SDS011;57319;56.274;43.980;2024-02-21T05:31:26;1.75;;;1.75;;
69981;SDS011;57319;56.274;43.980;2024-02-21T05:34:07;7.90;;;1.83;;
69981;SDS011;57319;56.274;43.980;2024-02-21T05:36:33;2.28;;;2.03;;
69981;SDS011;57319;56.274;43.980;2024-02-21T05:38:59;1.67;;;1.58;;
69981;SDS011;57319;56.274;43.980;2024-02-21T05:41:24;1.33;;;1.33;;
69981;SDS011;57319;56.274;43.980;2024-02-21T05:43:50;1.45;;;1.45;;
69981;SDS011;57319;56.274;43.980;2024-02-21T05:46:18;1.73;;;1.73;;
69981;SDS011;57319;56.274;43.980;2024-02-21T05:48:44;3.03;;;1.92;;
69981;SDS011;57319;56.274;43.980;2024-02-21T05:51:11;1.63;;;1.63;;
69981;SDS011;57319;56.274;43.980;2024-02-21T05:53:36;2.58;;;1.42;;
69981;SDS011;57319;56.274;43.980;2024-02-21T05:56:09;1.42;;;1.42;;
69981;SDS011;57319;56.274;43.980;2024-02-21T05:58:36;1.90;;;1.73;;
69981;SDS011;57319;56.274;43.980;2024-02-21T06:01:02;2.13;;;1.42;;
69981;SDS011;57319;56.274;43.980;2024-02-21T06:03:29;2.35;;;2.25;;
69981;SDS011;57319;56.274;43.980;2024-02-21T06:05:55;2.20;;;2.08;;
69981;SDS011;57319;56.274;43.980;2024-02-21T06:08:21;1.23;;;1.23;;
69981;SDS011;57319;56.274;43.980;2024-02-21T06:10:47;1.60;;;1.50;;
69981;SDS011;57319;56.274;43.980;2024-02-21T06:13:14;1.83;;;1.75;;
69981;SDS011;57319;56.274;43.980;2024-02-21T06:15:40;1.80;;;1.80;;
69981;SDS011;57319;56.274;43.980;2024-02-21T06:18:05;1.65;;;1.52;;
69981;SDS011;57319;56.274;43.980;2024-02-21T06:20:31;1.30;;;1.30;;
69981;SDS011;57319;56.274;43.980;2024-02-21T06:22:57;1.55;;;1.52;;
69981;SDS011;57319;56.274;43.980;2024-02-21T06:25:23;1.50;;;1.48;;
69981;SDS011;57319;56.274;43.980;2024-02-21T06:27:49;1.42;;;1.33;;
69981;SDS011;57319;56.274;43.980;2024-02-21T06:30:14;2.05;;;1.95;;
69981;SDS011;57319;56.274;43.980;2024-02-21T06:32:40;1.80;;;1.70;;
69981;SDS011;57319;56.274;43.980;2024-02-21T06:35:06;2.17;;;2.05;;
69981;SDS011;57319;56.274;43.980;2024-02-21T06:37:31;2.13;;;2.03;;
69981;SDS011;57319;56.274;43.980;2024-02-21T06:39:57;1.27;;;1.27;;
69981;SDS011;57319;56.274;43.980;2024-02-21T06:42:24;1.67;;;1.67;;
69981;SDS011;57319;56.274;43.980;2024-02-21T06:44:51;2.00;;;1.98;;
69981;SDS011;57319;56.274;43.980;2024-02-21T06:47:17;1.95;;;1.85;;
69981;SDS011;57319;56.274;43.980;2024-02-21T06:49:43;1.38;;;1.38;;
69981;SDS011;57319;56.274;43.980;2024-02-21T06:52:13;2.65;;;2.45;;
69981;SDS011;57319;56.274;43.980;2024-02-21T06:54:41;1.63;;;1.55;;
69981;SDS011;57319;56.274;43.980;2024-02-21T06:57:07;3.20;;;2.28;;
69981;SDS011;57319;56.274;43.980;2024-02-21T06:59:33;2.10;;;2.00;;
69981;SDS011;57319;56.274;43.980;2024-02-21T07:01:59;1.65;;;1.65;;
69981;SDS011;57319;56.274;43.980;2024-02-21T07:04:26;0.98;;;0.98;;
69981;SDS011;57319;56.274;43.980;2024-02-21T07:06:54;3.08;;;2.10;;
69981;SDS011;57319;56.274;43.980;2024-02-21T07:09:20;4.68;;;2.70;;
69981;SDS011;57319;56.274;43.980;2024-02-21T07:11:46;2.65;;;2.45;;
69981;SDS011;57319;56.274;43.980;2024-02-21T07:14:13;2.22;;;2.13;;
69981;SDS011;57319;56.274;43.980;2024-02-21T07:16:40;2.10;;;1.92;;
69981;SDS011;57319;56.274;43.980;2024-02-21T07:19:06;2.35;;;2.15;;
69981;SDS011;57319;56.274;43.980;2024-02-21T07:21:32;2.20;;;2.10;;
69981;SDS011;57319;56.274;43.980;2024-02-21T07:23:57;2.97;;;2.33;;
69981;SDS011;57319;56.274;43.980;2024-02-21T07:26:23;3.35;;;2.58;;
69981;SDS011;57319;56.274;43.980;2024-02-21T07:28:49;1.88;;;1.77;;
69981;SDS011;57319;56.274;43.980;2024-02-21T07:31:15;1.58;;;1.58;;
69981;SDS011;57319;56.274;43.980;2024-02-21T07:33:40;3.00;;;2.80;;
69981;SDS011;57319;56.274;43.980;2024-02-21T07:36:10;2.25;;;2.03;;
69981;SDS011;57319;56.274;43.980;2024-02-21T07:38:36;2.20;;;2.00;;
69981;SDS011;57319;56.274;43.980;2024-02-21T07:41:02;2.75;;;2.55;;
69981;SDS011;57319;56.274;43.980;2024-02-21T07:43:29;2.55;;;2.45;;
69981;SDS011;57319;56.274;43.980;2024-02-21T07:45:55;5.68;;;2.50;;
69981;SDS011;57319;56.274;43.980;2024-02-21T07:48:21;2.67;;;2.58;;
69981;SDS011;57319;56.274;43.980;2024-02-21T07:50:51;5.32;;;3.17;;
69981;SDS011;57319;56.274;43.980;2024-02-21T07:53:17;1.45;;;1.45;;
69981;SDS011;57319;56.274;43.980;2024-02-21T07:55:43;3.45;;;2.08;;
69981;SDS011;57319;56.274;43.980;2024-02-21T07:58:09;2.85;;;1.67;;
69981;SDS011;57319;56.274;43.980;2024-02-21T08:00:35;2.45;;;2.22;;
69981;SDS011;57319;56.274;43.980;2024-02-21T08:03:00;3.58;;;1.92;;
69981;SDS011;57319;56.274;43.980;2024-02-21T08:05:26;2.85;;;2.65;;
69981;SDS011;57319;56.274;43.980;2024-02-21T08:07:51;2.55;;;2.45;;
69981;SDS011;57319;56.274;43.980;2024-02-21T08:10:17;1.13;;;1.13;;
69981;SDS011;57319;56.274;43.980;2024-02-21T08:12:43;3.22;;;2.20;;
69981;SDS011;57319;56.274;43.980;2024-02-21T08:15:09;2.58;;;2.47;;
69981;SDS011;57319;56.274;43.980;2024-02-21T08:17:36;3.70;;;2.90;;
69981;SDS011;57319;56.274;43.980;2024-02-21T08:20:02;1.77;;;1.67;;
69981;SDS011;57319;56.274;43.980;2024-02-21T08:22:29;2.17;;;1.98;;
69981;SDS011;57319;56.274;43.980;2024-02-21T08:24:55;1.75;;;1.75;;
69981;SDS011;57319;56.274;43.980;2024-02-21T08:27:21;3.25;;;3.03;;
69981;SDS011;57319;56.274;43.980;2024-02-21T08:29:47;3.85;;;3.17;;
69981;SDS011;57319;56.274;43.980;2024-02-21T08:32:13;3.08;;;1.63;;
69981;SDS011;57319;56.274;43.980;2024-02-21T08:34:38;2.20;;;2.05;;
69981;SDS011;57319;56.274;43.980;2024-02-21T08:37:04;2.78;;;2.58;;
69981;SDS011;57319;56.274;43.980;2024-02-21T08:39:30;2.38;;;2.17;;
69981;SDS011;57319;56.274;43.980;2024-02-21T08:41:56;2.88;;;2.67;;
69981;SDS011;57319;56.274;43.980;2024-02-21T08:44:22;3.55;;;3.10;;
69981;SDS011;57319;56.274;43.980;2024-02-21T08:46:49;3.10;;;2.90;;
69981;SDS011;57319;56.274;43.980;2024-02-21T08:49:15;2.88;;;2.67;;
69981;SDS011;57319;56.274;43.980;2024-02-21T08:51:41;3.83;;;3.53;;
69981;SDS011;57319;56.274;43.980;2024-02-21T08:54:08;3.05;;;2.85;;
69981;SDS011;57319;56.274;43.980;2024-02-21T08:56:33;2.97;;;2.78;;
69981;SDS011;57319;56.274;43.980;2024-02-21T08:59:00;2.75;;;2.65;;
69981;SDS011;57319;56.274;43.980;2024-02-21T09:01:27;2.42;;;2.33;;
69981;SDS011;57319;56.274;43.980;2024-02-21T09:03:54;3.40;;;3.13;;
69981;SDS011;57319;56.274;43.980;2024-02-21T09:06:21;2.60;;;2.50;;
69981;SDS011;57319;56.274;43.980;2024-02-21T09:08:47;2.70;;;2.58;;
69981;SDS011;57319;56.274;43.980;2024-02-21T09:11:14;3.28;;;3.08;;
69981;SDS011;57319;56.274;43.980;2024-02-21T09:13:41;3.33;;;3.13;;
69981;SDS011;57319;56.274;43.980;2024-02-21T09:16:07;1.45;;;1.45;;
69981;SDS011;57319;56.274;43.980;2024-02-21T09:18:34;3.20;;;2.92;;
69981;SDS011;57319;56.274;43.980;2024-02-21T09:20:59;2.83;;;2.72;;
69981;SDS011;57319;56.274;43.980;2024-02-21T09:23:26;2.35;;;2.20;;
69981;SDS011;57319;56.274;43.980;2024-02-21T09:25:52;3.47;;;3.17;;
69981;SDS011;57319;56.274;43.980;2024-02-21T09:28:17;2.45;;;2.15;;
69981;SDS011;57319;56.274;43.980;2024-02-21T09:30:44;4.00;;;3.70;;
69981;SDS011;57319;56.274;43.980;2024-02-21T09:33:11;3.60;;;2.85;;
69981;SDS011;57319;56.274;43.980;2024-02-21T09:35:36;3.78;;;3.47;;
69981;SDS011;57319;56.274;43.980;2024-02-21T09:38:02;2.55;;;2.45;;
69981;SDS011;57319;56.274;43.980;2024-02-21T09:40:28;2.53;;;2.33;;
69981;SDS011;57319;56.274;43.980;2024-02-21T09:43:03;2.70;;;2.45;;
69981;SDS011;57319;56.274;43.980;2024-02-21T09:45:33;3.00;;;2.80;;
69981;SDS011;57319;56.274;43.980;2024-02-21T09:50:25;5.57;;;2.90;;
69981;SDS011;57319;56.274;43.980;2024-02-21T09:52:52;2.90;;;2.70;;
69981;SDS011;57319;56.274;43.980;2024-02-21T09:55:20;2.67;;;2.50;;
69981;SDS011;57319;56.274;43.980;2024-02-21T09:57:46;3.53;;;3.33;;
69981;SDS011;57319;56.274;43.980;2024-02-21T10:00:20;2.80;;;2.65;;
69981;SDS011;57319;56.274;43.980;2024-02-21T10:02:50;2.78;;;2.50;;
69981;SDS011;57319;56.274;43.980;2024-02-21T10:05:16;2.85;;;2.55;;
69981;SDS011;57319;56.274;43.980;2024-02-21T10:07:43;3.50;;;3.30;;
69981;SDS011;57319;56.274;43.980;2024-02-21T10:10:09;3.13;;;2.92;;
69981;SDS011;57319;56.274;43.980;2024-02-21T10:12:35;2.97;;;2.63;;
69981;SDS011;57319;56.274;43.980;2024-02-21T10:15:02;4.57;;;3.13;;
69981;SDS011;57319;56.274;43.980;2024-02-21T10:17:31;2.72;;;2.58;;
69981;SDS011;57319;56.274;43.980;2024-02-21T10:20:08;3.20;;;2.95;;
69981;SDS011;57319;56.274;43.980;2024-02-21T10:22:39;3.53;;;3.10;;
69981;SDS011;57319;56.274;43.980;2024-02-21T10:25:08;0.95;;;0.93;;
69981;SDS011;57319;56.274;43.980;2024-02-21T10:27:35;2.53;;;2.42;;
69981;SDS011;57319;56.274;43.980;2024-02-21T10:30:02;3.20;;;3.00;;
69981;SDS011;57319;56.274;43.980;2024-02-21T10:32:29;2.90;;;2.80;;
69981;SDS011;57319;56.274;43.980;2024-02-21T10:35:02;3.90;;;3.30;;
69981;SDS011;57319;56.274;43.980;2024-02-21T10:39:56;2.53;;;2.42;;
69981;SDS011;57319;56.274;43.980;2024-02-21T10:42:22;2.55;;;2.35;;
69981;SDS011;57319;56.274;43.980;2024-02-21T10:44:51;2.63;;;2.47;;
69981;SDS011;57319;56.274;43.980;2024-02-21T10:47:17;3.45;;;3.17;;
69981;SDS011;57319;56.274;43.980;2024-02-21T10:49:48;5.05;;;3.85;;
69981;SDS011;57319;56.274;43.980;2024-02-21T10:54:55;4.13;;;3.63;;
69981;SDS011;57319;56.274;43.980;2024-02-21T10:57:28;3.27;;;3.17;;
69981;SDS011;57319;56.274;43.980;2024-02-21T10:59:55;4.90;;;3.38;;
69981;SDS011;57319;56.274;43.980;2024-02-21T11:02:23;5.03;;;3.13;;
69981;SDS011;57319;56.274;43.980;2024-02-21T11:04:50;3.53;;;3.17;;
69981;SDS011;57319;56.274;43.980;2024-02-21T11:07:18;4.18;;;3.90;;
69981;SDS011;57319;56.274;43.980;2024-02-21T11:09:50;2.88;;;2.67;;
69981;SDS011;57319;56.274;43.980;2024-02-21T11:12:20;3.25;;;3.05;;
69981;SDS011;57319;56.274;43.980;2024-02-21T11:14:47;3.63;;;3.13;;
69981;SDS011;57319;56.274;43.980;2024-02-21T11:17:16;3.85;;;3.40;;
69981;SDS011;57319;56.274;43.980;2024-02-21T11:19:44;3.40;;;3.20;;
69981;SDS011;57319;56.274;43.980;2024-02-21T11:22:16;3.72;;;3.42;;
69981;SDS011;57319;56.274;43.980;2024-02-21T11:24:43;2.53;;;2.42;;
69981;SDS011;57319;56.274;43.980;2024-02-21T11:29:48;4.32;;;3.45;;
69981;SDS011;57319;56.274;43.980;2024-02-21T11:32:19;3.60;;;3.30;;
69981;SDS011;57319;56.274;43.980;2024-02-21T11:34:54;5.32;;;3.20;;
69981;SDS011;57319;56.274;43.980;2024-02-21T11:37:35;3.70;;;2.97;;
69981;SDS011;57319;56.274;43.980;2024-02-21T11:40:02;4.45;;;4.05;;
69981;SDS011;57319;56.274;43.980;2024-02-21T11:42:28;10.90;;;4.82;;
69981;SDS011;57319;56.274;43.980;2024-02-21T11:44:56;4.72;;;4.10;;
69981;SDS011;57319;56.274;43.980;2024-02-21T11:47:23;3.63;;;3.42;;
69981;SDS011;57319;56.274;43.980;2024-02-21T11:49:49;2.08;;;1.98;;
69981;SDS011;57319;56.274;43.980;2024-02-21T11:52:19;3.60;;;3.30;;
69981;SDS011;57319;56.274;43.980;2024-02-21T11:54:47;1.92;;;1.92;;
69981;SDS011;57319;56.274;43.980;2024-02-21T11:57:13;2.45;;;2.35;;
69981;SDS011;57319;56.274;43.980;2024-02-21T11:59:39;9.27;;;2.47;;
69981;SDS011;57319;56.274;43.980;2024-02-21T12:02:06;3.85;;;3.55;;
69981;SDS011;57319;56.274;43.980;2024-02-21T12:04:31;2.63;;;2.42;;
69981;SDS011;57319;56.274;43.980;2024-02-21T12:06:57;1.65;;;1.55;;
69981;SDS011;57319;56.274;43.980;2024-02-21T12:09:24;2.55;;;2.35;;
69981;SDS011;57319;56.274;43.980;2024-02-21T12:12:24;5.15;;;2.60;;
69981;SDS011;57319;56.274;43.980;2024-02-21T12:14:45;2.25;;;2.15;;
69981;SDS011;57319;56.274;43.980;2024-02-21T12:17:10;1.70;;;1.70;;
69981;SDS011;57319;56.274;43.980;2024-02-21T12:19:36;1.60;;;1.60;;
69981;SDS011;57319;56.274;43.980;2024-02-21T12:22:02;1.65;;;1.65;;
69981;SDS011;57319;56.274;43.980;2024-02-21T12:24:31;2.53;;;2.13;;
69981;SDS011;57319;56.274;43.980;2024-02-21T12:26:56;2.65;;;2.40;;
69981;SDS011;57319;56.274;43.980;2024-02-21T12:29:24;2.38;;;2.17;;
69981;SDS011;57319;56.274;43.980;2024-02-21T12:31:50;1.92;;;1.92;;
69981;SDS011;57319;56.274;43.980;2024-02-21T12:34:16;2.60;;;2.50;;
69981;SDS011;57319;56.274;43.980;2024-02-21T12:36:43;2.40;;;2.30;;
69981;SDS011;57319;56.274;43.980;2024-02-21T12:39:10;2.83;;;2.33;;
69981;SDS011;57319;56.274;43.980;2024-02-21T12:41:36;2.38;;;2.28;;
69981;SDS011;57319;56.274;43.980;2024-02-21T12:44:09;2.38;;;2.22;;
69981;SDS011;57319;56.274;43.980;2024-02-21T12:46:36;2.75;;;2.63;;
69981;SDS011;57319;56.274;43.980;2024-02-21T12:49:03;2.50;;;2.38;;
69981;SDS011;57319;56.274;43.980;2024-02-21T12:51:30;2.47;;;2.38;;
69981;SDS011;57319;56.274;43.980;2024-02-21T12:53:57;3.05;;;2.85;;
69981;SDS011;57319;56.274;43.980;2024-02-21T12:56:22;2.58;;;2.47;;
69981;SDS011;57319;56.274;43.980;2024-02-21T12:58:49;2.67;;;2.47;;
69981;SDS011;57319;56.274;43.980;2024-02-21T13:01:16;2.40;;;2.30;;
69981;SDS011;57319;56.274;43.980;2024-02-21T13:03:41;2.17;;;1.90;;
69981;SDS011;57319;56.274;43.980;2024-02-21T13:06:07;1.73;;;1.65;;
69981;SDS011;57319;56.274;43.980;2024-02-21T13:08:39;2.05;;;1.95;;
69981;SDS011;57319;56.274;43.980;2024-02-21T13:11:05;1.85;;;1.75;;
69981;SDS011;57319;56.274;43.980;2024-02-21T13:13:31;2.38;;;2.28;;
69981;SDS011;57319;56.274;43.980;2024-02-21T13:15:57;2.72;;;2.60;;
69981;SDS011;57319;56.274;43.980;2024-02-21T13:18:24;2.35;;;2.25;;
69981;SDS011;57319;56.274;43.980;2024-02-21T13:20:49;2.45;;;2.35;;
69981;SDS011;57319;56.274;43.980;2024-02-21T13:23:15;2.35;;;2.25;;
69981;SDS011;57319;56.274;43.980;2024-02-21T13:25:41;2.83;;;2.65;;
69981;SDS011;57319;56.274;43.980;2024-02-21T13:28:09;2.60;;;2.40;;
69981;SDS011;57319;56.274;43.980;2024-02-21T13:30:35;4.07;;;2.80;;
69981;SDS011;57319;56.274;43.980;2024-02-21T13:33:01;1.83;;;1.83;;
69981;SDS011;57319;56.274;43.980;2024-02-21T13:35:28;3.50;;;3.20;;
69981;SDS011;57319;56.274;43.980;2024-02-21T13:37:54;2.83;;;2.60;;
69981;SDS011;57319;56.274;43.980;2024-02-21T13:40:19;2.78;;;2.58;;
69981;SDS011;57319;56.274;43.980;2024-02-21T13:42:45;2.70;;;2.50;;
69981;SDS011;57319;56.274;43.980;2024-02-21T13:45:11;3.13;;;3.03;;
69981;SDS011;57319;56.274;43.980;2024-02-21T13:47:37;3.03;;;2.92;;
69981;SDS011;57319;56.274;43.980;2024-02-21T13:50:04;3.15;;;2.90;;
69981;SDS011;57319;56.274;43.980;2024-02-21T13:52:30;2.97;;;2.78;;
69981;SDS011;57319;56.274;43.980;2024-02-21T13:54:56;2.88;;;2.70;;
69981;SDS011;57319;56.274;43.980;2024-02-21T13:57:22;2.30;;;2.20;;
69981;SDS011;57319;56.274;43.980;2024-02-21T13:59:48;2.60;;;2.47;;
69981;SDS011;57319;56.274;43.980;2024-02-21T14:02:13;2.45;;;2.35;;
69981;SDS011;57319;56.274;43.980;2024-02-21T14:04:39;2.95;;;2.20;;
69981;SDS011;57319;56.274;43.980;2024-02-21T14:07:05;1.98;;;1.98;;
69981;SDS011;57319;56.274;43.980;2024-02-21T14:09:31;2.08;;;2.00;;
69981;SDS011;57319;56.274;43.980;2024-02-21T14:11:58;3.67;;;2.58;;
69981;SDS011;57319;56.274;43.980;2024-02-21T14:14:23;2.92;;;2.72;;
69981;SDS011;57319;56.274;43.980;2024-02-21T14:16:49;3.30;;;3.00;;
69981;SDS011;57319;56.274;43.980;2024-02-21T14:19:19;5.38;;;2.50;;
69981;SDS011;57319;56.274;43.980;2024-02-21T14:21:45;2.05;;;1.95;;
69981;SDS011;57319;56.274;43.980;2024-02-21T14:24:25;2.10;;;2.00;;
69981;SDS011;57319;56.274;43.980;2024-02-21T14:26:54;2.70;;;2.60;;
69981;SDS011;57319;56.274;43.980;2024-02-21T14:29:22;6.90;;;2.78;;
69981;SDS011;57319;56.274;43.980;2024-02-21T14:31:51;3.85;;;2.60;;
69981;SDS011;57319;56.274;43.980;2024-02-21T14:34:16;2.67;;;2.53;;
69981;SDS011;57319;56.274;43.980;2024-02-21T14:36:42;3.05;;;2.85;;
69981;SDS011;57319;56.274;43.980;2024-02-21T14:39:08;2.92;;;2.53;;
69981;SDS011;57319;56.274;43.980;2024-02-21T14:41:33;3.20;;;2.88;;
69981;SDS011;57319;56.274;43.980;2024-02-21T14:44:00;2.33;;;2.17;;